createdAt,value
2022-08-16T00:04:06.947Z,12.00
2022-08-16T00:09:43.965Z,9.60
2022-08-16T00:15:52.026Z,10.80
2022-08-16T00:22:03.109Z,14.00
2022-08-16T00:27:47.188Z,12.40
2022-08-16T00:34:04.627Z,12.20
2022-08-16T00:40:33.528Z,12.70
2022-08-16T00:47:05.005Z,17.60
2022-08-16T00:53:21.951Z,17.50
2022-08-16T01:00:10.186Z,17.70
2022-08-16T01:06:40.731Z,14.00
2022-08-16T01:12:26.509Z,15.50
2022-08-16T01:18:40.115Z,15.30
2022-08-16T01:25:37.541Z,14.80
2022-08-16T01:31:23.330Z,11.10
2022-08-16T01:37:17.596Z,13.10
2022-08-16T01:42:50.986Z,17.80
2022-08-16T01:48:20.655Z,13.80
2022-08-16T01:53:54.726Z,15.20
2022-08-16T01:59:33.971Z,16.60
2022-08-16T02:05:12.245Z,14.40
2022-08-16T02:10:42.430Z,15.50
2022-08-16T02:16:23.728Z,16.10
2022-08-16T02:22:34.687Z,15.60
2022-08-16T02:28:08.755Z,13.90
2022-08-16T02:33:59.333Z,12.90
2022-08-16T02:40:05.956Z,12.80
2022-08-16T02:46:33.852Z,14.40
2022-08-16T02:52:00.425Z,14.40
2022-08-16T02:57:53.937Z,17.00
2022-08-16T03:04:40.607Z,14.40
2022-08-16T03:09:32.562Z,16.80
2022-08-16T03:15:08.617Z,15.90
2022-08-16T03:20:57.118Z,14.70
2022-08-16T03:26:19.577Z,15.80
2022-08-16T03:31:52.472Z,14.00
2022-08-16T03:38:01.720Z,16.50
2022-08-16T03:43:51.011Z,15.10
2022-08-16T03:49:15.174Z,18.80
2022-08-16T03:55:06.014Z,16.50
2022-08-16T04:00:41.185Z,16.60
2022-08-16T04:07:07.269Z,16.70
2022-08-16T04:12:59.476Z,17.70
2022-08-16T04:18:25.918Z,16.70
2022-08-16T04:23:52.063Z,20.70
2022-08-16T04:29:44.142Z,20.40
2022-08-16T04:35:49.379Z,19.30
2022-08-16T04:41:46.230Z,19.10
2022-08-16T04:47:21.084Z,16.80
2022-08-16T04:52:55.687Z,17.50
2022-08-16T04:58:45.470Z,26.30
2022-08-16T05:04:19.648Z,23.00
2022-08-16T05:09:48.986Z,19.00
2022-08-16T05:15:33.141Z,24.60
2022-08-16T05:21:13.638Z,20.00
2022-08-16T05:26:51.476Z,29.40
2022-08-16T05:32:32.351Z,21.30
2022-08-16T05:38:33.205Z,28.30
2022-08-16T05:44:27.427Z,23.50
2022-08-16T05:49:54.775Z,20.90
2022-08-16T05:55:24.469Z,21.30
2022-08-16T06:00:50.676Z,20.20
2022-08-16T06:06:31.574Z,29.40
2022-08-16T06:11:57.214Z,21.90
2022-08-16T06:17:24.363Z,20.90
2022-08-16T06:23:40.508Z,19.50
2022-08-16T06:29:20.474Z,24.50
2022-08-16T06:35:17.580Z,19.30
2022-08-16T06:40:49.117Z,15.20
2022-08-16T06:47:03.103Z,16.00
2022-08-16T06:53:00.008Z,17.60
2022-08-16T06:58:37.000Z,15.50
2022-08-16T07:04:12.005Z,15.20
2022-08-16T07:10:57.922Z,16.00
2022-08-16T07:17:23.596Z,13.40
2022-08-16T07:23:37.365Z,22.80
2022-08-16T07:29:28.061Z,16.60
2022-08-16T07:35:12.421Z,18.20
2022-08-16T07:41:00.698Z,22.90
2022-08-16T07:47:16.854Z,65.30
2022-08-16T07:54:20.818Z,59.40
2022-08-16T08:00:18.548Z,38.60
2022-08-16T08:06:36.649Z,34.30
2022-08-16T08:12:36.628Z,11.10
2022-08-16T08:18:56.049Z,21.00
2022-08-16T08:24:44.630Z,11.20
2022-08-16T08:31:01.162Z,16.10
2022-08-16T08:37:08.889Z,14.40
2022-08-16T08:42:49.700Z,12.50
2022-08-16T08:49:01.898Z,10.00
2022-08-16T08:55:39.376Z,15.60
2022-08-16T09:01:36.817Z,11.80
2022-08-16T09:07:33.597Z,15.80
2022-08-16T09:13:24.707Z,14.20
2022-08-16T09:19:32.011Z,12.30
2022-08-16T09:25:13.077Z,11.70
2022-08-16T09:31:20.748Z,10.60
2022-08-16T09:37:17.956Z,9.90
2022-08-16T09:42:59.080Z,11.60
2022-08-16T09:48:51.213Z,10.40
2022-08-16T09:54:45.417Z,10.60
2022-08-16T10:00:42.667Z,16.40
2022-08-16T10:06:34.217Z,30.70
2022-08-16T10:12:43.799Z,19.70
2022-08-16T10:18:56.873Z,12.10
2022-08-16T10:25:00.162Z,20.10
2022-08-16T10:31:05.666Z,18.30
2022-08-16T10:36:39.822Z,23.20
2022-08-16T10:42:01.968Z,21.50
2022-08-16T10:48:00.943Z,11.40
2022-08-16T10:54:00.355Z,15.60
2022-08-16T10:59:38.991Z,10.60
2022-08-16T11:05:21.907Z,10.30
2022-08-16T11:11:19.687Z,14.50
2022-08-16T11:17:02.690Z,15.50
2022-08-16T11:23:22.268Z,11.40
2022-08-16T11:29:14.956Z,17.60
2022-08-16T11:35:14.013Z,18.90
2022-08-16T11:40:52.621Z,10.80
2022-08-16T11:46:46.834Z,14.10
2022-08-16T11:53:03.717Z,9.10
2022-08-16T11:58:59.265Z,9.60
2022-08-16T12:05:15.987Z,11.30
2022-08-16T12:10:45.343Z,8.60
2022-08-16T12:16:11.466Z,11.80
2022-08-16T12:22:05.351Z,8.90
2022-08-16T12:29:12.042Z,11.40
2022-08-16T12:34:37.767Z,9.40
2022-08-16T12:40:37.665Z,9.90
2022-08-16T12:46:26.076Z,8.90
2022-08-16T12:52:32.817Z,13.00
2022-08-16T12:58:48.278Z,10.50
2022-08-16T13:04:35.652Z,12.40
2022-08-16T13:10:48.918Z,6.50
2022-08-16T13:17:06.729Z,7.00
2022-08-16T13:23:36.009Z,6.40
2022-08-16T13:29:24.198Z,9.50
2022-08-16T13:35:56.350Z,11.00
2022-08-16T13:41:26.232Z,18.50
2022-08-16T13:47:39.344Z,17.70
2022-08-16T13:53:24.767Z,5.50
2022-08-16T13:59:51.493Z,7.40
2022-08-16T14:06:23.184Z,7.90
2022-08-16T14:13:28.203Z,18.20
2022-08-16T14:19:24.629Z,11.30
2022-08-16T14:25:28.966Z,7.80
2022-08-16T14:31:28.073Z,5.80
2022-08-16T14:38:39.128Z,6.80
2022-08-16T14:44:07.702Z,6.20
2022-08-16T14:49:36.066Z,11.80
2022-08-16T14:55:31.629Z,7.60
2022-08-16T15:01:57.821Z,6.10
2022-08-16T15:07:47.014Z,8.60
2022-08-16T15:14:03.962Z,7.20
2022-08-16T15:19:30.575Z,9.60
2022-08-16T15:25:29.406Z,11.20
2022-08-16T15:31:14.245Z,9.90
2022-08-16T15:36:45.283Z,8.50
2022-08-16T15:42:33.459Z,9.20
2022-08-16T15:48:28.533Z,8.40
2022-08-16T15:54:29.921Z,8.10
2022-08-16T16:00:15.163Z,9.60
2022-08-16T16:06:02.679Z,9.20
2022-08-16T16:17:25.366Z,9.30
2022-08-16T16:22:57.994Z,13.40
2022-08-16T16:29:06.701Z,12.60
2022-08-16T16:34:13.104Z,10.10
2022-08-16T16:39:45.552Z,9.50
2022-08-16T16:45:15.339Z,10.30
2022-08-16T16:51:11.428Z,9.10
2022-08-16T16:56:49.772Z,11.90
2022-08-16T17:02:38.836Z,9.90
2022-08-16T17:08:24.638Z,11.60
2022-08-16T17:14:06.199Z,10.70
2022-08-16T17:19:59.235Z,11.20
2022-08-16T17:25:55.687Z,11.50
2022-08-16T17:31:41.110Z,13.30
2022-08-16T17:37:12.766Z,10.90
2022-08-16T17:42:47.490Z,11.60
2022-08-16T17:48:35.865Z,13.00
2022-08-16T17:54:04.449Z,13.00
2022-08-16T17:59:31.697Z,13.30
2022-08-16T18:05:23.675Z,11.70
2022-08-16T18:10:53.059Z,16.00
2022-08-16T18:16:17.088Z,15.00
2022-08-16T18:21:59.831Z,11.40
2022-08-16T18:27:32.861Z,15.50
2022-08-16T18:32:58.204Z,14.80
2022-08-16T18:38:44.468Z,14.10
2022-08-16T18:44:25.266Z,11.70
2022-08-16T18:50:09.924Z,15.00
2022-08-16T18:55:36.265Z,15.60
2022-08-16T19:01:36.909Z,16.60
2022-08-16T19:07:11.531Z,18.90
2022-08-16T19:12:59.028Z,15.30
2022-08-16T19:18:57.379Z,16.80
2022-08-16T19:24:44.132Z,14.10
2022-08-16T19:30:13.104Z,17.70
2022-08-16T19:35:51.746Z,22.20
2022-08-16T19:41:28.841Z,18.40
2022-08-16T19:47:10.267Z,23.10
2022-08-16T19:53:19.685Z,21.00
2022-08-16T19:59:18.548Z,21.60
2022-08-16T20:05:05.642Z,24.80
2022-08-16T20:16:01.897Z,17.90
2022-08-16T20:21:37.428Z,20.50
2022-08-16T20:27:33.163Z,21.50
2022-08-16T20:33:11.026Z,22.50
2022-08-16T20:38:52.906Z,21.80
2022-08-16T20:44:48.654Z,29.20
2022-08-16T20:50:13.563Z,31.10
2022-08-16T20:55:52.923Z,26.70
2022-08-16T21:01:50.125Z,26.30
2022-08-16T21:07:51.033Z,25.10
2022-08-16T21:13:18.887Z,25.30
2022-08-16T21:19:02.370Z,20.70
2022-08-16T21:24:25.271Z,23.50
2022-08-16T21:30:00.083Z,22.90
2022-08-16T21:35:50.741Z,20.60
2022-08-16T21:41:15.343Z,20.00
2022-08-16T21:47:23.338Z,21.10
2022-08-16T21:53:31.607Z,18.00
2022-08-16T21:59:11.121Z,20.10
2022-08-16T22:04:39.113Z,25.60
2022-08-16T22:11:07.518Z,22.80
2022-08-16T22:15:52.138Z,24.20
2022-08-16T22:21:22.081Z,22.90
2022-08-16T22:27:09.032Z,20.00
2022-08-16T22:32:53.112Z,26.20
2022-08-16T22:38:55.492Z,22.70
2022-08-16T22:44:30.332Z,22.50
2022-08-16T22:49:59.034Z,27.30
2022-08-16T22:55:35.886Z,24.00
2022-08-16T23:01:06.050Z,24.70
2022-08-16T23:06:31.310Z,21.00
2022-08-16T23:12:13.400Z,23.10
2022-08-16T23:18:02.128Z,25.20
2022-08-16T23:23:49.186Z,28.60
2022-08-16T23:29:26.310Z,27.40
2022-08-16T23:34:53.117Z,22.00
2022-08-16T23:40:31.883Z,21.30
2022-08-16T23:46:03.810Z,24.50
2022-08-16T23:51:49.449Z,27.30
2022-08-16T23:57:15.666Z,23.50
